MPH1HK EHAM-ELLX
Flight info
| Callsign | MPH1HK |
|---|---|
| Flight time | N/A |
| Altitude | 23000 |
| Route | LOPIK N852 LNO |
| Aircraft | B742/H-SDFHIRWXY/L |
Departure
| Time | 2026-04-28 17:54 |
|---|---|
| Airport | Amsterdam Airport Schiphol (EHAM) |
Arrival
| Time | N/A |
|---|---|
| Airport | Luxembourg-Findel International Airport (ELLX) |
| Time | Latitude | Longitude | Altitude | Speed | Heading |
|---|---|---|---|---|---|
| 2026-04-28 16:49 | 52.29582 | 4.76411 | 0 ft | 0 kts | 149° |
| 2026-04-28 17:21 | 52.29586 | 4.76407 | 0 ft | 2 kts | 149° |
| 2026-04-28 17:21 | 52.29598 | 4.76395 | 0 ft | 2 kts | 149° |
| 2026-04-28 17:21 | 52.29611 | 4.76382 | 0 ft | 2 kts | 149° |
| 2026-04-28 17:22 | 52.29637 | 4.76357 | 0 ft | 2 kts | 159° |
| 2026-04-28 17:22 | 52.29651 | 4.76352 | 0 ft | 2 kts | 178° |
| 2026-04-28 17:22 | 52.29666 | 4.76354 | -1 ft | 2 kts | 194° |
| 2026-04-28 17:23 | 52.29692 | 4.76378 | -1 ft | 2 kts | 227° |
| 2026-04-28 17:23 | 52.29697 | 4.76389 | -1 ft | 0 kts | 237° |
| 2026-04-28 17:23 | 52.29699 | 4.76394 | -1 ft | 0 kts | 237° |
| 2026-04-28 17:24 | 52.29699 | 4.76393 | -1 ft | 0 kts | 237° |
| 2026-04-28 17:33 | 52.29671 | 4.76324 | -1 ft | 12 kts | 237° |
| 2026-04-28 17:33 | 52.29634 | 4.76231 | 0 ft | 16 kts | 237° |
| 2026-04-28 17:34 | 52.29548 | 4.76008 | -1 ft | 21 kts | 238° |
| 2026-04-28 17:34 | 52.29487 | 4.75770 | -1 ft | 21 kts | 249° |
| 2026-04-28 17:34 | 52.29439 | 4.75610 | -1 ft | 7 kts | 246° |
| 2026-04-28 17:34 | 52.29437 | 4.75604 | -1 ft | 0 kts | 246° |
| 2026-04-28 17:35 | 52.29430 | 4.75571 | -2 ft | 0 kts | 252° |
| 2026-04-28 17:35 | 52.29428 | 4.75560 | -1 ft | 2 kts | 255° |
| 2026-04-28 17:36 | 52.29430 | 4.75569 | -1 ft | 8 kts | 264° |
| 2026-04-28 17:36 | 52.29430 | 4.75533 | -1 ft | 3 kts | 270° |
| 2026-04-28 17:36 | 52.29431 | 4.75493 | -1 ft | 1 kts | 277° |
| 2026-04-28 17:36 | 52.29441 | 4.75422 | -1 ft | 16 kts | 289° |
| 2026-04-28 17:37 | 52.29653 | 4.75261 | 0 ft | 13 kts | 21° |
| 2026-04-28 17:38 | 52.29697 | 4.75271 | 0 ft | 2 kts | 1° |
| 2026-04-28 17:38 | 52.29708 | 4.75271 | 0 ft | 0 kts | 1° |
| 2026-04-28 17:38 | 52.29709 | 4.75271 | 0 ft | 0 kts | 1° |
| 2026-04-28 17:39 | 52.29764 | 4.75268 | 0 ft | 13 kts | 351° |
| 2026-04-28 17:39 | 52.29888 | 4.75112 | 4 ft | 9 kts | 311° |
| 2026-04-28 17:40 | 52.29933 | 4.75023 | 4 ft | 14 kts | 310° |
| 2026-04-28 17:40 | 52.30034 | 4.74836 | 3 ft | 25 kts | 311° |
| 2026-04-28 17:40 | 52.30158 | 4.74606 | -2 ft | 28 kts | 311° |
| 2026-04-28 17:40 | 52.30268 | 4.74402 | -6 ft | 18 kts | 311° |
| 2026-04-28 17:41 | 52.30362 | 4.74234 | -9 ft | 21 kts | 325° |
| 2026-04-28 17:41 | 52.30502 | 4.74197 | -8 ft | 20 kts | 4° |
| 2026-04-28 17:41 | 52.30643 | 4.74209 | -8 ft | 20 kts | 3° |
| 2026-04-28 17:41 | 52.30776 | 4.74221 | -6 ft | 18 kts | 3° |
| 2026-04-28 17:42 | 52.30872 | 4.74231 | -4 ft | 10 kts | 4° |
| 2026-04-28 17:42 | 52.30920 | 4.74236 | -3 ft | 11 kts | 3° |
| 2026-04-28 17:42 | 52.31041 | 4.74249 | -1 ft | 15 kts | 3° |
| 2026-04-28 17:42 | 52.31162 | 4.74258 | -1 ft | 19 kts | 3° |
| 2026-04-28 17:43 | 52.31289 | 4.74270 | -1 ft | 15 kts | 2° |
| 2026-04-28 17:43 | 52.31396 | 4.74280 | -2 ft | 15 kts | 5° |
| 2026-04-28 17:43 | 52.31510 | 4.74291 | -4 ft | 17 kts | 3° |
| 2026-04-28 17:43 | 52.31630 | 4.74303 | -5 ft | 19 kts | 2° |
| 2026-04-28 17:44 | 52.31765 | 4.74313 | -5 ft | 20 kts | 4° |
| 2026-04-28 17:44 | 52.31929 | 4.74329 | -5 ft | 24 kts | 4° |
| 2026-04-28 17:44 | 52.32027 | 4.74248 | -5 ft | 13 kts | 285° |
| 2026-04-28 17:44 | 52.32037 | 4.74059 | -5 ft | 19 kts | 272° |
| 2026-04-28 17:45 | 52.32043 | 4.73881 | -3 ft | 12 kts | 274° |
| 2026-04-28 17:45 | 52.32048 | 4.73733 | -1 ft | 15 kts | 274° |
| 2026-04-28 17:45 | 52.32055 | 4.73537 | -1 ft | 18 kts | 273° |
| 2026-04-28 17:45 | 52.32089 | 4.73367 | -1 ft | 13 kts | 310° |
| 2026-04-28 17:46 | 52.32157 | 4.73260 | -3 ft | 14 kts | 319° |
| 2026-04-28 17:46 | 52.32235 | 4.73148 | -5 ft | 15 kts | 319° |
| 2026-04-28 17:46 | 52.32314 | 4.73036 | -5 ft | 15 kts | 319° |
| 2026-04-28 17:46 | 52.32406 | 4.72905 | -4 ft | 21 kts | 320° |
| 2026-04-28 17:47 | 52.32549 | 4.72706 | -3 ft | 30 kts | 320° |
| 2026-04-28 17:47 | 52.32661 | 4.72547 | -2 ft | 19 kts | 316° |
| 2026-04-28 17:47 | 52.32751 | 4.72383 | -1 ft | 19 kts | 312° |
| 2026-04-28 17:47 | 52.32796 | 4.72301 | -1 ft | 14 kts | 311° |
| 2026-04-28 17:48 | 52.32839 | 4.72077 | -1 ft | 18 kts | 269° |
| 2026-04-28 17:48 | 52.32875 | 4.71893 | -2 ft | 17 kts | 312° |
| 2026-04-28 17:48 | 52.32960 | 4.71741 | -4 ft | 18 kts | 311° |
| 2026-04-28 17:48 | 52.33046 | 4.71582 | -5 ft | 17 kts | 306° |
| 2026-04-28 17:49 | 52.33058 | 4.71400 | -5 ft | 16 kts | 239° |
| 2026-04-28 17:49 | 52.32977 | 4.71265 | -5 ft | 16 kts | 222° |
| 2026-04-28 17:49 | 52.32893 | 4.71133 | -5 ft | 16 kts | 234° |
| 2026-04-28 17:49 | 52.32870 | 4.70958 | -5 ft | 15 kts | 283° |
| 2026-04-28 17:50 | 52.32941 | 4.70895 | -5 ft | 12 kts | 1° |
| 2026-04-28 17:50 | 52.32957 | 4.70896 | -5 ft | 0 kts | 3° |
| 2026-04-28 17:53 | 52.32979 | 4.70898 | -5 ft | 17 kts | 3° |
| 2026-04-28 17:53 | 52.33551 | 4.70945 | -4 ft | 148 kts | 2° |
| 2026-04-28 17:54 | 52.34808 | 4.70995 | 680 ft | 191 kts | 7° |
| 2026-04-28 17:54 | 52.35950 | 4.71053 | 1275 ft | 151 kts | 12° |
| 2026-04-28 17:54 | 52.36756 | 4.71768 | 1315 ft | 127 kts | 67° |
| 2026-04-28 17:54 | 52.36826 | 4.73184 | 1322 ft | 127 kts | 92° |
| 2026-04-28 17:55 | 52.36741 | 4.74606 | 1361 ft | 125 kts | 92° |
| 2026-04-28 17:55 | 52.36650 | 4.76098 | 1495 ft | 136 kts | 92° |